sensor_id;sensor_type;location;lat;lon;timestamp;temperature;humidity
16829;DHT22;8531;48.078;11.968;2023-06-19T00:01:48;21.90;96.10
16829;DHT22;8531;48.078;11.968;2023-06-19T00:04:13;21.90;96.00
16829;DHT22;8531;48.078;11.968;2023-06-19T00:06:39;21.90;96.10
16829;DHT22;8531;48.078;11.968;2023-06-19T00:09:06;22.00;96.10
16829;DHT22;8531;48.078;11.968;2023-06-19T00:11:32;21.90;96.10
16829;DHT22;8531;48.078;11.968;2023-06-19T00:13:58;21.90;96.10
16829;DHT22;8531;48.078;11.968;2023-06-19T00:16:24;21.90;96.30
16829;DHT22;8531;48.078;11.968;2023-06-19T00:18:51;21.80;96.60
16829;DHT22;8531;48.078;11.968;2023-06-19T00:21:21;21.70;96.60
16829;DHT22;8531;48.078;11.968;2023-06-19T00:23:49;21.60;96.70
16829;DHT22;8531;48.078;11.968;2023-06-19T00:26:15;21.60;96.80
16829;DHT22;8531;48.078;11.968;2023-06-19T00:28:41;21.50;96.80
16829;DHT22;8531;48.078;11.968;2023-06-19T00:31:09;21.50;96.80
16829;DHT22;8531;48.078;11.968;2023-06-19T00:33:34;21.50;97.10
16829;DHT22;8531;48.078;11.968;2023-06-19T00:36:00;21.40;97.00
16829;DHT22;8531;48.078;11.968;2023-06-19T00:38:26;21.40;97.00
16829;DHT22;8531;48.078;11.968;2023-06-19T00:40:52;21.40;96.90
16829;DHT22;8531;48.078;11.968;2023-06-19T00:43:18;21.30;97.00
16829;DHT22;8531;48.078;11.968;2023-06-19T00:45:44;21.40;97.00
16829;DHT22;8531;48.078;11.968;2023-06-19T00:48:09;21.40;96.90
16829;DHT22;8531;48.078;11.968;2023-06-19T00:50:35;21.60;96.90
16829;DHT22;8531;48.078;11.968;2023-06-19T00:53:03;21.60;96.80
16829;DHT22;8531;48.078;11.968;2023-06-19T00:55:30;21.50;96.80
16829;DHT22;8531;48.078;11.968;2023-06-19T00:57:59;21.30;96.90
16829;DHT22;8531;48.078;11.968;2023-06-19T01:00:25;21.20;97.00
16829;DHT22;8531;48.078;11.968;2023-06-19T01:02:50;21.20;97.00
16829;DHT22;8531;48.078;11.968;2023-06-19T01:05:16;21.20;96.90
16829;DHT22;8531;48.078;11.968;2023-06-19T01:10:51;21.20;97.00
16829;DHT22;8531;48.078;11.968;2023-06-19T01:13:38;21.20;97.10
16829;DHT22;8531;48.078;11.968;2023-06-19T01:16:07;21.20;97.10
16829;DHT22;8531;48.078;11.968;2023-06-19T01:18:34;21.20;97.20
16829;DHT22;8531;48.078;11.968;2023-06-19T01:21:13;21.30;97.10
16829;DHT22;8531;48.078;11.968;2023-06-19T01:23:39;21.30;97.00
16829;DHT22;8531;48.078;11.968;2023-06-19T01:26:06;21.40;97.80
16829;DHT22;8531;48.078;11.968;2023-06-19T01:28:34;21.60;97.90
16829;DHT22;8531;48.078;11.968;2023-06-19T01:31:01;21.60;97.70
16829;DHT22;8531;48.078;11.968;2023-06-19T01:33:28;21.60;97.60
16829;DHT22;8531;48.078;11.968;2023-06-19T01:35:57;21.50;97.50
16829;DHT22;8531;48.078;11.968;2023-06-19T01:38:24;21.30;97.00
16829;DHT22;8531;48.078;11.968;2023-06-19T01:40:55;21.00;97.50
16829;DHT22;8531;48.078;11.968;2023-06-19T01:43:23;20.90;97.70
16829;DHT22;8531;48.078;11.968;2023-06-19T01:45:49;20.80;97.70
16829;DHT22;8531;48.078;11.968;2023-06-19T01:48:15;20.90;97.70
16829;DHT22;8531;48.078;11.968;2023-06-19T01:50:48;21.20;98.40
16829;DHT22;8531;48.078;11.968;2023-06-19T01:53:14;21.40;98.50
16829;DHT22;8531;48.078;11.968;2023-06-19T01:55:40;21.40;98.30
16829;DHT22;8531;48.078;11.968;2023-06-19T01:58:06;21.30;98.40
16829;DHT22;8531;48.078;11.968;2023-06-19T02:00:32;21.30;98.40
16829;DHT22;8531;48.078;11.968;2023-06-19T02:03:01;21.30;98.40
16829;DHT22;8531;48.078;11.968;2023-06-19T02:05:27;21.40;98.40
16829;DHT22;8531;48.078;11.968;2023-06-19T02:07:52;21.30;98.60
16829;DHT22;8531;48.078;11.968;2023-06-19T02:10:18;21.20;98.60
16829;DHT22;8531;48.078;11.968;2023-06-19T02:12:44;21.20;98.70
16829;DHT22;8531;48.078;11.968;2023-06-19T02:15:09;21.20;98.70
16829;DHT22;8531;48.078;11.968;2023-06-19T02:17:35;21.20;98.80
16829;DHT22;8531;48.078;11.968;2023-06-19T02:20:01;21.20;98.80
16829;DHT22;8531;48.078;11.968;2023-06-19T02:22:27;21.20;98.80
16829;DHT22;8531;48.078;11.968;2023-06-19T02:24:52;21.10;98.90
16829;DHT22;8531;48.078;11.968;2023-06-19T02:27:18;21.10;98.90
16829;DHT22;8531;48.078;11.968;2023-06-19T02:29:44;21.10;98.90
16829;DHT22;8531;48.078;11.968;2023-06-19T02:32:09;21.20;99.10
16829;DHT22;8531;48.078;11.968;2023-06-19T02:34:36;21.20;99.30
16829;DHT22;8531;48.078;11.968;2023-06-19T02:37:01;21.20;99.20
16829;DHT22;8531;48.078;11.968;2023-06-19T02:39:28;21.10;99.40
16829;DHT22;8531;48.078;11.968;2023-06-19T02:41:54;21.00;99.60
16829;DHT22;8531;48.078;11.968;2023-06-19T02:44:20;21.00;99.90
16829;DHT22;8531;48.078;11.968;2023-06-19T02:46:46;20.90;99.80
16829;DHT22;8531;48.078;11.968;2023-06-19T02:49:11;21.00;99.80
16829;DHT22;8531;48.078;11.968;2023-06-19T02:51:37;20.90;99.80
16829;DHT22;8531;48.078;11.968;2023-06-19T02:54:02;20.80;99.90
16829;DHT22;8531;48.078;11.968;2023-06-19T02:56:28;20.90;99.90
16829;DHT22;8531;48.078;11.968;2023-06-19T02:58:54;20.70;99.90
16829;DHT22;8531;48.078;11.968;2023-06-19T03:01:20;20.60;99.90
16829;DHT22;8531;48.078;11.968;2023-06-19T03:03:45;20.40;99.90
16829;DHT22;8531;48.078;11.968;2023-06-19T03:06:12;20.30;99.90
16829;DHT22;8531;48.078;11.968;2023-06-19T03:08:39;20.00;99.90
16829;DHT22;8531;48.078;11.968;2023-06-19T03:11:05;19.90;99.90
16829;DHT22;8531;48.078;11.968;2023-06-19T03:13:50;19.80;99.90
16829;DHT22;8531;48.078;11.968;2023-06-19T03:16:16;19.90;99.90
16829;DHT22;8531;48.078;11.968;2023-06-19T03:18:42;19.90;99.90
16829;DHT22;8531;48.078;11.968;2023-06-19T03:21:13;20.00;99.90
16829;DHT22;8531;48.078;11.968;2023-06-19T03:23:39;19.90;99.90
16829;DHT22;8531;48.078;11.968;2023-06-19T03:26:09;19.90;99.90
16829;DHT22;8531;48.078;11.968;2023-06-19T03:28:36;19.90;99.90
16829;DHT22;8531;48.078;11.968;2023-06-19T03:31:01;19.90;99.90
16829;DHT22;8531;48.078;11.968;2023-06-19T03:33:27;19.90;99.90
16829;DHT22;8531;48.078;11.968;2023-06-19T03:35:53;19.90;99.90
16829;DHT22;8531;48.078;11.968;2023-06-19T03:38:19;19.80;99.90
16829;DHT22;8531;48.078;11.968;2023-06-19T03:40:44;19.90;99.90
16829;DHT22;8531;48.078;11.968;2023-06-19T03:43:10;19.90;99.90
16829;DHT22;8531;48.078;11.968;2023-06-19T03:45:36;19.90;99.90
16829;DHT22;8531;48.078;11.968;2023-06-19T03:48:02;19.90;99.90
16829;DHT22;8531;48.078;11.968;2023-06-19T03:50:28;20.00;99.90
16829;DHT22;8531;48.078;11.968;2023-06-19T03:52:54;20.00;99.90
16829;DHT22;8531;48.078;11.968;2023-06-19T03:55:19;20.00;99.90
16829;DHT22;8531;48.078;11.968;2023-06-19T03:57:45;20.00;99.90
16829;DHT22;8531;48.078;11.968;2023-06-19T04:00:11;20.00;99.90
16829;DHT22;8531;48.078;11.968;2023-06-19T04:02:39;20.10;99.90
16829;DHT22;8531;48.078;11.968;2023-06-19T04:05:05;20.20;99.90
16829;DHT22;8531;48.078;11.968;2023-06-19T04:07:31;20.30;99.90
16829;DHT22;8531;48.078;11.968;2023-06-19T04:09:57;20.30;99.90
16829;DHT22;8531;48.078;11.968;2023-06-19T04:12:23;20.20;99.90
16829;DHT22;8531;48.078;11.968;2023-06-19T04:14:50;20.40;99.90
16829;DHT22;8531;48.078;11.968;2023-06-19T04:17:16;20.50;99.90
16829;DHT22;8531;48.078;11.968;2023-06-19T04:19:42;20.60;99.90
16829;DHT22;8531;48.078;11.968;2023-06-19T04:22:08;20.60;99.90
16829;DHT22;8531;48.078;11.968;2023-06-19T04:24:34;20.60;99.90
16829;DHT22;8531;48.078;11.968;2023-06-19T04:27:00;20.40;99.90
16829;DHT22;8531;48.078;11.968;2023-06-19T04:29:25;20.40;99.90
16829;DHT22;8531;48.078;11.968;2023-06-19T04:31:51;20.50;99.90
16829;DHT22;8531;48.078;11.968;2023-06-19T04:34:17;20.30;99.90
16829;DHT22;8531;48.078;11.968;2023-06-19T04:36:47;20.30;99.90
16829;DHT22;8531;48.078;11.968;2023-06-19T04:39:13;20.40;99.90
16829;DHT22;8531;48.078;11.968;2023-06-19T04:41:39;20.40;99.90
16829;DHT22;8531;48.078;11.968;2023-06-19T04:44:05;20.30;99.90
16829;DHT22;8531;48.078;11.968;2023-06-19T04:46:31;20.30;99.90
16829;DHT22;8531;48.078;11.968;2023-06-19T04:48:57;20.40;99.90
16829;DHT22;8531;48.078;11.968;2023-06-19T04:51:23;20.50;99.90
16829;DHT22;8531;48.078;11.968;2023-06-19T04:53:48;20.60;99.90
16829;DHT22;8531;48.078;11.968;2023-06-19T04:56:15;20.70;99.90
16829;DHT22;8531;48.078;11.968;2023-06-19T04:58:41;20.70;99.90
16829;DHT22;8531;48.078;11.968;2023-06-19T05:01:12;20.70;99.90
16829;DHT22;8531;48.078;11.968;2023-06-19T05:03:39;20.70;99.90
16829;DHT22;8531;48.078;11.968;2023-06-19T05:06:05;20.70;99.90
16829;DHT22;8531;48.078;11.968;2023-06-19T05:08:31;20.80;99.90
16829;DHT22;8531;48.078;11.968;2023-06-19T05:10:57;20.70;99.90
16829;DHT22;8531;48.078;11.968;2023-06-19T05:13:24;20.70;99.90
16829;DHT22;8531;48.078;11.968;2023-06-19T05:15:49;20.70;99.90
16829;DHT22;8531;48.078;11.968;2023-06-19T05:18:16;20.80;99.90
16829;DHT22;8531;48.078;11.968;2023-06-19T05:20:43;20.90;99.90
16829;DHT22;8531;48.078;11.968;2023-06-19T05:23:08;20.90;99.90
16829;DHT22;8531;48.078;11.968;2023-06-19T05:25:34;21.00;99.90
16829;DHT22;8531;48.078;11.968;2023-06-19T05:27:59;21.10;99.90
16829;DHT22;8531;48.078;11.968;2023-06-19T05:30:25;21.10;99.90
16829;DHT22;8531;48.078;11.968;2023-06-19T05:32:51;21.20;99.90
16829;DHT22;8531;48.078;11.968;2023-06-19T05:35:16;21.20;99.90
16829;DHT22;8531;48.078;11.968;2023-06-19T05:37:42;21.20;99.90
16829;DHT22;8531;48.078;11.968;2023-06-19T05:40:09;21.30;99.90
16829;DHT22;8531;48.078;11.968;2023-06-19T05:42:36;21.20;99.90
16829;DHT22;8531;48.078;11.968;2023-06-19T05:45:03;21.30;99.90
16829;DHT22;8531;48.078;11.968;2023-06-19T05:47:29;21.40;99.90
16829;DHT22;8531;48.078;11.968;2023-06-19T05:49:56;21.40;99.90
16829;DHT22;8531;48.078;11.968;2023-06-19T05:52:22;21.50;99.90
16829;DHT22;8531;48.078;11.968;2023-06-19T05:54:48;21.60;99.90
16829;DHT22;8531;48.078;11.968;2023-06-19T05:57:14;21.70;99.90
16829;DHT22;8531;48.078;11.968;2023-06-19T05:59:41;21.80;99.90
16829;DHT22;8531;48.078;11.968;2023-06-19T06:02:08;21.90;99.90
16829;DHT22;8531;48.078;11.968;2023-06-19T06:04:34;22.10;99.90
16829;DHT22;8531;48.078;11.968;2023-06-19T06:07:00;22.20;99.90
16829;DHT22;8531;48.078;11.968;2023-06-19T06:09:26;22.30;99.90
16829;DHT22;8531;48.078;11.968;2023-06-19T06:11:52;22.30;99.90
16829;DHT22;8531;48.078;11.968;2023-06-19T06:14:18;22.40;99.90
16829;DHT22;8531;48.078;11.968;2023-06-19T06:16:44;22.40;99.90
16829;DHT22;8531;48.078;11.968;2023-06-19T06:19:10;22.20;99.90
16829;DHT22;8531;48.078;11.968;2023-06-19T06:21:35;22.20;99.90
16829;DHT22;8531;48.078;11.968;2023-06-19T06:24:01;22.00;99.90
16829;DHT22;8531;48.078;11.968;2023-06-19T06:26:27;21.80;99.90
16829;DHT22;8531;48.078;11.968;2023-06-19T06:28:54;21.80;99.90
16829;DHT22;8531;48.078;11.968;2023-06-19T06:31:22;21.70;99.90
16829;DHT22;8531;48.078;11.968;2023-06-19T06:33:48;21.70;99.90
16829;DHT22;8531;48.078;11.968;2023-06-19T06:36:15;21.80;99.90
16829;DHT22;8531;48.078;11.968;2023-06-19T06:38:41;21.70;99.90
16829;DHT22;8531;48.078;11.968;2023-06-19T06:41:06;21.80;99.90
16829;DHT22;8531;48.078;11.968;2023-06-19T06:43:32;22.00;99.90
16829;DHT22;8531;48.078;11.968;2023-06-19T06:45:58;22.20;99.90
16829;DHT22;8531;48.078;11.968;2023-06-19T06:48:23;22.30;99.90
16829;DHT22;8531;48.078;11.968;2023-06-19T06:50:49;22.50;99.90
16829;DHT22;8531;48.078;11.968;2023-06-19T06:53:15;22.50;99.90
16829;DHT22;8531;48.078;11.968;2023-06-19T06:55:41;22.40;99.90
16829;DHT22;8531;48.078;11.968;2023-06-19T06:58:07;22.50;99.90
16829;DHT22;8531;48.078;11.968;2023-06-19T07:00:32;22.60;99.90
16829;DHT22;8531;48.078;11.968;2023-06-19T07:02:58;22.70;99.90
16829;DHT22;8531;48.078;11.968;2023-06-19T07:05:23;22.60;99.90
16829;DHT22;8531;48.078;11.968;2023-06-19T07:07:49;22.70;99.90
16829;DHT22;8531;48.078;11.968;2023-06-19T07:10:15;22.70;99.90
16829;DHT22;8531;48.078;11.968;2023-06-19T07:12:47;22.80;99.90
16829;DHT22;8531;48.078;11.968;2023-06-19T07:15:13;22.80;99.90
16829;DHT22;8531;48.078;11.968;2023-06-19T07:17:39;22.90;99.90
16829;DHT22;8531;48.078;11.968;2023-06-19T07:20:05;23.00;99.90
16829;DHT22;8531;48.078;11.968;2023-06-19T07:22:31;23.00;99.90
16829;DHT22;8531;48.078;11.968;2023-06-19T07:24:57;23.00;99.90
16829;DHT22;8531;48.078;11.968;2023-06-19T07:27:23;23.00;99.90
16829;DHT22;8531;48.078;11.968;2023-06-19T07:29:53;23.20;99.90
16829;DHT22;8531;48.078;11.968;2023-06-19T07:32:18;23.30;99.90
16829;DHT22;8531;48.078;11.968;2023-06-19T07:34:45;23.40;99.90
16829;DHT22;8531;48.078;11.968;2023-06-19T07:37:11;23.50;99.90
16829;DHT22;8531;48.078;11.968;2023-06-19T07:39:46;23.50;99.90
16829;DHT22;8531;48.078;11.968;2023-06-19T07:42:13;23.50;99.90
16829;DHT22;8531;48.078;11.968;2023-06-19T07:44:40;23.90;99.90
16829;DHT22;8531;48.078;11.968;2023-06-19T07:47:06;23.90;99.90
16829;DHT22;8531;48.078;11.968;2023-06-19T07:49:32;23.80;99.90
16829;DHT22;8531;48.078;11.968;2023-06-19T07:51:58;23.80;99.90
16829;DHT22;8531;48.078;11.968;2023-06-19T07:54:23;23.70;99.90
16829;DHT22;8531;48.078;11.968;2023-06-19T07:56:49;23.70;99.90
16829;DHT22;8531;48.078;11.968;2023-06-19T07:59:15;23.70;99.90
16829;DHT22;8531;48.078;11.968;2023-06-19T08:01:42;23.80;99.90
16829;DHT22;8531;48.078;11.968;2023-06-19T08:04:08;23.90;99.90
16829;DHT22;8531;48.078;11.968;2023-06-19T08:06:34;23.90;99.90
16829;DHT22;8531;48.078;11.968;2023-06-19T08:08:59;24.00;99.90
16829;DHT22;8531;48.078;11.968;2023-06-19T08:11:25;24.10;99.90
16829;DHT22;8531;48.078;11.968;2023-06-19T08:13:51;24.20;99.90
16829;DHT22;8531;48.078;11.968;2023-06-19T08:16:16;24.40;99.90
16829;DHT22;8531;48.078;11.968;2023-06-19T08:18:44;24.70;99.90
16829;DHT22;8531;48.078;11.968;2023-06-19T08:21:09;25.20;99.90
16829;DHT22;8531;48.078;11.968;2023-06-19T08:23:35;25.60;99.90
16829;DHT22;8531;48.078;11.968;2023-06-19T08:26:01;25.90;99.90
16829;DHT22;8531;48.078;11.968;2023-06-19T08:28:27;26.30;99.90
16829;DHT22;8531;48.078;11.968;2023-06-19T08:30:53;26.50;99.90
16829;DHT22;8531;48.078;11.968;2023-06-19T08:33:18;26.70;99.90
16829;DHT22;8531;48.078;11.968;2023-06-19T08:35:44;26.90;99.90
16829;DHT22;8531;48.078;11.968;2023-06-19T08:38:11;27.20;99.90
16829;DHT22;8531;48.078;11.968;2023-06-19T08:40:37;27.30;99.90
16829;DHT22;8531;48.078;11.968;2023-06-19T08:43:03;27.50;99.90
16829;DHT22;8531;48.078;11.968;2023-06-19T08:45:29;27.50;99.90
16829;DHT22;8531;48.078;11.968;2023-06-19T08:47:58;27.90;99.90
16829;DHT22;8531;48.078;11.968;2023-06-19T08:50:25;28.00;99.90
16829;DHT22;8531;48.078;11.968;2023-06-19T08:52:51;28.20;99.90
16829;DHT22;8531;48.078;11.968;2023-06-19T08:55:16;28.30;99.90
16829;DHT22;8531;48.078;11.968;2023-06-19T08:57:42;28.40;99.90
16829;DHT22;8531;48.078;11.968;2023-06-19T09:00:08;28.40;99.00
16829;DHT22;8531;48.078;11.968;2023-06-19T09:02:41;28.30;98.90
16829;DHT22;8531;48.078;11.968;2023-06-19T09:05:14;28.10;98.70
16829;DHT22;8531;48.078;11.968;2023-06-19T09:07:41;28.00;98.00
16829;DHT22;8531;48.078;11.968;2023-06-19T09:10:18;27.90;98.50
16829;DHT22;8531;48.078;11.968;2023-06-19T09:12:55;28.30;98.60
16829;DHT22;8531;48.078;11.968;2023-06-19T09:15:21;28.70;98.10
16829;DHT22;8531;48.078;11.968;2023-06-19T09:18:09;29.00;97.80
16829;DHT22;8531;48.078;11.968;2023-06-19T09:20:39;29.10;97.50
16829;DHT22;8531;48.078;11.968;2023-06-19T09:23:12;29.10;97.30
16829;DHT22;8531;48.078;11.968;2023-06-19T09:28:40;29.40;96.50
16829;DHT22;8531;48.078;11.968;2023-06-19T09:31:08;29.50;96.50
16829;DHT22;8531;48.078;11.968;2023-06-19T09:33:34;29.50;96.60
16829;DHT22;8531;48.078;11.968;2023-06-19T09:36:01;29.50;96.40
16829;DHT22;8531;48.078;11.968;2023-06-19T09:38:29;29.50;96.70
16829;DHT22;8531;48.078;11.968;2023-06-19T09:40:57;29.60;96.50
16829;DHT22;8531;48.078;11.968;2023-06-19T09:43:34;29.90;96.60
16829;DHT22;8531;48.078;11.968;2023-06-19T09:46:02;30.30;96.30
16829;DHT22;8531;48.078;11.968;2023-06-19T09:48:30;29.50;96.10
16829;DHT22;8531;48.078;11.968;2023-06-19T09:51:32;29.50;96.00
16829;DHT22;8531;48.078;11.968;2023-06-19T09:53:59;29.90;95.80
16829;DHT22;8531;48.078;11.968;2023-06-19T09:56:27;30.60;96.40
16829;DHT22;8531;48.078;11.968;2023-06-19T09:58:56;30.80;95.70
16829;DHT22;8531;48.078;11.968;2023-06-19T10:01:23;30.80;95.30
16829;DHT22;8531;48.078;11.968;2023-06-19T10:03:48;31.10;95.20
16829;DHT22;8531;48.078;11.968;2023-06-19T10:06:16;31.40;95.00
16829;DHT22;8531;48.078;11.968;2023-06-19T10:08:43;31.30;95.30
16829;DHT22;8531;48.078;11.968;2023-06-19T10:11:10;31.60;95.20
16829;DHT22;8531;48.078;11.968;2023-06-19T10:13:37;31.50;95.10
16829;DHT22;8531;48.078;11.968;2023-06-19T10:16:07;31.50;94.90
16829;DHT22;8531;48.078;11.968;2023-06-19T10:18:44;31.40;94.90
16829;DHT22;8531;48.078;11.968;2023-06-19T10:21:16;31.50;94.80
16829;DHT22;8531;48.078;11.968;2023-06-19T10:23:42;31.70;94.90
16829;DHT22;8531;48.078;11.968;2023-06-19T10:26:08;31.70;94.70
16829;DHT22;8531;48.078;11.968;2023-06-19T10:28:46;31.30;94.90
16829;DHT22;8531;48.078;11.968;2023-06-19T10:31:13;30.90;95.50
16829;DHT22;8531;48.078;11.968;2023-06-19T10:33:39;31.70;95.10
16829;DHT22;8531;48.078;11.968;2023-06-19T10:36:18;31.80;94.70
16829;DHT22;8531;48.078;11.968;2023-06-19T10:38:45;31.50;94.60
16829;DHT22;8531;48.078;11.968;2023-06-19T10:41:18;31.80;94.80
16829;DHT22;8531;48.078;11.968;2023-06-19T10:44:07;32.30;94.40
16829;DHT22;8531;48.078;11.968;2023-06-19T10:46:38;32.60;94.10
16829;DHT22;8531;48.078;11.968;2023-06-19T10:49:05;32.40;94.40
16829;DHT22;8531;48.078;11.968;2023-06-19T10:51:34;32.60;93.80
16829;DHT22;8531;48.078;11.968;2023-06-19T10:53:59;32.80;94.00
16829;DHT22;8531;48.078;11.968;2023-06-19T10:56:25;32.80;94.10
16829;DHT22;8531;48.078;11.968;2023-06-19T11:01:32;32.60;93.90
16829;DHT22;8531;48.078;11.968;2023-06-19T11:03:58;32.80;93.00
16829;DHT22;8531;48.078;11.968;2023-06-19T11:06:24;33.20;93.10
16829;DHT22;8531;48.078;11.968;2023-06-19T11:08:53;33.10;92.50
16829;DHT22;8531;48.078;11.968;2023-06-19T11:11:19;33.30;92.50
16829;DHT22;8531;48.078;11.968;2023-06-19T11:13:45;33.60;92.50
16829;DHT22;8531;48.078;11.968;2023-06-19T11:16:11;33.40;91.80
16829;DHT22;8531;48.078;11.968;2023-06-19T11:18:39;33.40;92.10
16829;DHT22;8531;48.078;11.968;2023-06-19T11:21:05;33.50;92.00
16829;DHT22;8531;48.078;11.968;2023-06-19T11:23:31;33.20;92.00
16829;DHT22;8531;48.078;11.968;2023-06-19T11:26:04;33.00;92.00
16829;DHT22;8531;48.078;11.968;2023-06-19T11:28:30;32.90;92.10
16829;DHT22;8531;48.078;11.968;2023-06-19T11:31:00;33.20;91.90
16829;DHT22;8531;48.078;11.968;2023-06-19T11:33:26;33.30;92.00
16829;DHT22;8531;48.078;11.968;2023-06-19T11:35:53;33.50;91.80
16829;DHT22;8531;48.078;11.968;2023-06-19T11:38:21;33.50;91.50
16829;DHT22;8531;48.078;11.968;2023-06-19T11:40:47;33.30;91.40
16829;DHT22;8531;48.078;11.968;2023-06-19T11:43:27;33.70;91.20
16829;DHT22;8531;48.078;11.968;2023-06-19T11:45:54;34.10;91.10
16829;DHT22;8531;48.078;11.968;2023-06-19T11:48:25;34.30;90.80
16829;DHT22;8531;48.078;11.968;2023-06-19T11:50:52;34.20;90.70
16829;DHT22;8531;48.078;11.968;2023-06-19T11:53:22;34.10;90.70
16829;DHT22;8531;48.078;11.968;2023-06-19T11:55:48;34.00;90.50
16829;DHT22;8531;48.078;11.968;2023-06-19T11:58:14;33.60;90.90
16829;DHT22;8531;48.078;11.968;2023-06-19T12:00:43;33.40;90.70
16829;DHT22;8531;48.078;11.968;2023-06-19T12:03:09;33.60;90.70
16829;DHT22;8531;48.078;11.968;2023-06-19T12:05:36;33.10;90.90
16829;DHT22;8531;48.078;11.968;2023-06-19T12:08:02;33.60;90.70
16829;DHT22;8531;48.078;11.968;2023-06-19T12:10:28;34.00;90.50
16829;DHT22;8531;48.078;11.968;2023-06-19T12:12:54;32.30;90.70
16829;DHT22;8531;48.078;11.968;2023-06-19T12:15:20;32.50;90.90
16829;DHT22;8531;48.078;11.968;2023-06-19T12:17:46;32.90;91.00
16829;DHT22;8531;48.078;11.968;2023-06-19T12:20:12;33.00;91.00
16829;DHT22;8531;48.078;11.968;2023-06-19T12:22:39;33.40;91.20
16829;DHT22;8531;48.078;11.968;2023-06-19T12:25:06;34.00;90.30
16829;DHT22;8531;48.078;11.968;2023-06-19T12:27:32;34.00;90.70
16829;DHT22;8531;48.078;11.968;2023-06-19T12:29:57;34.30;90.20
16829;DHT22;8531;48.078;11.968;2023-06-19T12:32:23;34.50;90.50
16829;DHT22;8531;48.078;11.968;2023-06-19T12:34:50;32.60;90.60
16829;DHT22;8531;48.078;11.968;2023-06-19T12:37:20;32.60;90.70
16829;DHT22;8531;48.078;11.968;2023-06-19T12:39:52;33.40;90.80
16829;DHT22;8531;48.078;11.968;2023-06-19T12:42:18;34.00;90.70
16829;DHT22;8531;48.078;11.968;2023-06-19T12:44:43;33.90;90.70
16829;DHT22;8531;48.078;11.968;2023-06-19T12:47:10;33.40;90.90
16829;DHT22;8531;48.078;11.968;2023-06-19T12:49:36;33.20;91.40
16829;DHT22;8531;48.078;11.968;2023-06-19T12:52:02;33.10;91.40
16829;DHT22;8531;48.078;11.968;2023-06-19T12:54:28;33.50;91.30
16829;DHT22;8531;48.078;11.968;2023-06-19T12:56:53;33.40;90.80
16829;DHT22;8531;48.078;11.968;2023-06-19T12:59:19;33.50;90.80
16829;DHT22;8531;48.078;11.968;2023-06-19T13:01:45;33.70;90.70
16829;DHT22;8531;48.078;11.968;2023-06-19T13:04:12;34.00;90.30
16829;DHT22;8531;48.078;11.968;2023-06-19T13:06:38;34.20;90.10
16829;DHT22;8531;48.078;11.968;2023-06-19T13:09:05;34.50;89.60
16829;DHT22;8531;48.078;11.968;2023-06-19T13:11:31;34.40;89.60
16829;DHT22;8531;48.078;11.968;2023-06-19T13:13:57;34.60;89.60
16829;DHT22;8531;48.078;11.968;2023-06-19T13:16:22;34.40;89.60
16829;DHT22;8531;48.078;11.968;2023-06-19T13:18:51;34.50;89.40
16829;DHT22;8531;48.078;11.968;2023-06-19T13:21:17;33.90;89.60
16829;DHT22;8531;48.078;11.968;2023-06-19T13:23:43;33.80;90.10
16829;DHT22;8531;48.078;11.968;2023-06-19T13:26:09;33.60;90.20
16829;DHT22;8531;48.078;11.968;2023-06-19T13:28:34;33.60;90.10
16829;DHT22;8531;48.078;11.968;2023-06-19T13:31:01;33.40;90.20
16829;DHT22;8531;48.078;11.968;2023-06-19T13:33:26;34.00;90.00
16829;DHT22;8531;48.078;11.968;2023-06-19T13:35:52;34.00;89.60
16829;DHT22;8531;48.078;11.968;2023-06-19T13:38:18;34.00;89.30
16829;DHT22;8531;48.078;11.968;2023-06-19T13:40:44;34.30;89.20
16829;DHT22;8531;48.078;11.968;2023-06-19T13:43:10;34.60;88.80
16829;DHT22;8531;48.078;11.968;2023-06-19T13:45:35;34.80;89.20
16829;DHT22;8531;48.078;11.968;2023-06-19T13:48:04;34.30;88.30
16829;DHT22;8531;48.078;11.968;2023-06-19T13:50:30;34.40;88.70
16829;DHT22;8531;48.078;11.968;2023-06-19T13:52:55;34.30;88.10
16829;DHT22;8531;48.078;11.968;2023-06-19T13:55:21;33.70;88.40
16829;DHT22;8531;48.078;11.968;2023-06-19T13:57:48;33.80;88.20
16829;DHT22;8531;48.078;11.968;2023-06-19T14:00:14;34.10;87.50
16829;DHT22;8531;48.078;11.968;2023-06-19T14:02:40;33.90;88.70
16829;DHT22;8531;48.078;11.968;2023-06-19T14:05:07;34.00;89.00
16829;DHT22;8531;48.078;11.968;2023-06-19T14:07:34;34.10;90.00
16829;DHT22;8531;48.078;11.968;2023-06-19T14:10:02;34.70;89.80
16829;DHT22;8531;48.078;11.968;2023-06-19T14:12:28;34.90;89.00
16829;DHT22;8531;48.078;11.968;2023-06-19T14:14:54;34.00;89.70
16829;DHT22;8531;48.078;11.968;2023-06-19T14:17:21;34.20;89.30
16829;DHT22;8531;48.078;11.968;2023-06-19T14:19:47;34.50;89.20
16829;DHT22;8531;48.078;11.968;2023-06-19T14:22:12;33.90;89.50
16829;DHT22;8531;48.078;11.968;2023-06-19T14:24:38;34.00;88.90
16829;DHT22;8531;48.078;11.968;2023-06-19T14:27:04;33.80;89.60
16829;DHT22;8531;48.078;11.968;2023-06-19T14:29:30;34.30;89.60
16829;DHT22;8531;48.078;11.968;2023-06-19T14:31:56;34.50;89.50
16829;DHT22;8531;48.078;11.968;2023-06-19T14:34:21;34.30;89.60
16829;DHT22;8531;48.078;11.968;2023-06-19T14:36:47;34.20;89.30
16829;DHT22;8531;48.078;11.968;2023-06-19T14:39:13;34.60;89.30
16829;DHT22;8531;48.078;11.968;2023-06-19T14:41:39;33.80;89.40
16829;DHT22;8531;48.078;11.968;2023-06-19T14:44:05;33.80;89.60
16829;DHT22;8531;48.078;11.968;2023-06-19T14:46:34;34.30;89.50
16829;DHT22;8531;48.078;11.968;2023-06-19T14:49:05;33.90;89.80
16829;DHT22;8531;48.078;11.968;2023-06-19T14:51:31;33.90;90.00
16829;DHT22;8531;48.078;11.968;2023-06-19T14:53:57;33.80;90.10
16829;DHT22;8531;48.078;11.968;2023-06-19T14:56:22;33.40;90.40
16829;DHT22;8531;48.078;11.968;2023-06-19T14:58:48;33.40;90.40
16829;DHT22;8531;48.078;11.968;2023-06-19T15:01:14;33.60;90.40
16829;DHT22;8531;48.078;11.968;2023-06-19T15:03:39;33.20;90.40
16829;DHT22;8531;48.078;11.968;2023-06-19T15:06:07;33.30;90.30
16829;DHT22;8531;48.078;11.968;2023-06-19T15:08:32;33.00;90.30
16829;DHT22;8531;48.078;11.968;2023-06-19T15:10:59;32.90;90.80
16829;DHT22;8531;48.078;11.968;2023-06-19T15:13:25;32.20;90.80
16829;DHT22;8531;48.078;11.968;2023-06-19T15:15:51;31.90;91.10
16829;DHT22;8531;48.078;11.968;2023-06-19T15:18:16;32.00;91.50
16829;DHT22;8531;48.078;11.968;2023-06-19T15:20:42;32.20;91.40
16829;DHT22;8531;48.078;11.968;2023-06-19T15:23:08;32.40;91.40
16829;DHT22;8531;48.078;11.968;2023-06-19T15:25:34;32.10;91.60
16829;DHT22;8531;48.078;11.968;2023-06-19T15:28:00;31.90;91.60
16829;DHT22;8531;48.078;11.968;2023-06-19T15:30:26;32.00;91.20
16829;DHT22;8531;48.078;11.968;2023-06-19T15:32:52;31.80;91.30
16829;DHT22;8531;48.078;11.968;2023-06-19T15:35:18;31.90;91.60
16829;DHT22;8531;48.078;11.968;2023-06-19T15:37:44;31.90;91.80